LFHP METAR and TAF | Updated Today

LFHP METAR

Le Puy-Loudes Airport

Observation time: 9 min. ago

LFHP 291130Z AUTO 04007KT 320V100 CAVOK 16/02 Q1011

Need help? Read our tutorial on how to read METARs or read the parsed version below.

Le Puy-Loudes Airport (LFHP) METAR

  • Weather conditions on Sun, 29 May 2022 11:30:00 +0000 (9 min. ago):
  • Present conditions: Dry
  • Clouds: Clear skies
  • Visibility: Greater than 10 km
  • Wind: 40 degrees at 7 knots
  • Temperature: 16 celsius
  • Dew point: 2 celsius
  • Pressure: 1011 millibars
  • Remarks: None


Useful to know...